Abercrombie, North Dakota
Current Conditions -  °F | °C
As of 4:35 PM on Wednesday 22 Oct 2014 (Local Time) from KBWP Reporting Station
Overcast Overcast  
Wind Chill: 16°   Ceiling: 4100
Heat Index: 16°   Visibility: 10mi
Dew Point:   Wind: 18mph
Humidity: 63%   Direction: 270°W
Pressure: 29.88"   Gusts: 22mph
Location:  46.45°N, 96.73°W
Report Text: KBWP 222135Z AUTO 27016G19KT 10SM OVC041 16/09 A2988 RMK AO1
Loading
Personal Weather Stations






























Interactive Weather Map New forecast layout! Learn more

10-Day Weather Forecast

Advertisements
Track Severe Weather on mobile